Stations météo

réclame
Mon MeteoGroup
Lus-La-Croix-Haute, France (7587): Température de l'air & dewpoint: 15.06.2018 12:00:00 - 21.06.2018 12:00:00 (CEST)Lus-La-Croix-Haute, France (7587): Vitesse du vent & gusts: 15.06.2018 12:00:00 - 21.06.2018 12:00:00 (CEST)Lus-La-Croix-Haute, France (7587): Direction du vent: 15.06.2018 12:00:00 - 21.06.2018 12:00:00 (CEST)Lus-La-Croix-Haute, France (7587): Quantités de précipitations: 15.06.2018 12:00:00 - 21.06.2018 12:00:00 (CEST)
Date & Time tt [°C] td [°C] ff [km/h] ff [knt] fx [km/h] fx [knt] dd rr [mm]
21.06.2018 12:00:00 - - - - - - - -
21.06.2018 11:00:00 22,8 16,8 8 4 18 10 WNW 0,0
21.06.2018 10:00:00 19,2 17,9 2 1 8 4 SE 0,0
21.06.2018 09:00:00 15,2 15,0 2 1 5 3 SSW 0,0
21.06.2018 08:00:00 13,8 13,6 2 1 5 3 ESE -
21.06.2018 07:00:00 13,4 13,2 2 1 4 2 WSW 0,0
21.06.2018 06:00:00 13,3 13,1 4 2 5 3 N 0,0
21.06.2018 05:00:00 13,5 13,3 4 2 8 4 NNE 0,0
21.06.2018 04:00:00 13,9 13,7 0 0 4 2 WNW 0,2
21.06.2018 03:00:00 13,9 13,7 2 1 5 3 WNW 0,0
21.06.2018 02:00:00 14,1 13,9 2 1 5 3 SSE -
21.06.2018 01:00:00 14,2 13,9 2 1 5 3 N 0,0
21.06.2018 00:00:00 14,6 14,3 4 2 8 4 NNE 0,0
20.06.2018 23:00:00 15,3 14,7 4 2 5 3 ENE 0,0
20.06.2018 22:00:00 15,8 14,8 2 1 5 3 SSW 0,0
20.06.2018 21:00:00 17,1 15,4 2 1 8 4 SW 0,0
20.06.2018 20:00:00 16,8 15,3 2 1 13 7 NW -
20.06.2018 19:00:00 15,9 14,6 8 4 35 19 WNW 4,0
20.06.2018 18:00:00 18,6 14,1 8 4 37 20 SSE 0,0
20.06.2018 17:00:00 21,3 13,5 18 10 41 22 S 0,0
20.06.2018 16:00:00 24,0 15,5 15 8 28 15 NW 0,0
20.06.2018 15:00:00 27,0 12,6 9 5 22 12 WNW 0,0
20.06.2018 14:00:00 27,6 12,4 8 4 22 12 SW -
20.06.2018 13:00:00 27,1 12,3 8 4 21 11 ESE 0,0
20.06.2018 12:00:00 25,7 11,8 13 7 26 14 S 0,0
20.06.2018 11:00:00 24,3 10,9 11 6 21 11 S 0,0
20.06.2018 10:00:00 20,3 15,3 2 1 8 4 W 0,0
20.06.2018 09:00:00 16,3 14,5 4 2 8 4 SSE 0,0
20.06.2018 08:00:00 13,2 13,0 2 1 4 2 N -
20.06.2018 07:00:00 11,6 11,3 2 1 4 2 SW 0,0
20.06.2018 06:00:00 11,7 11,4 0 0 4 2 ESE 0,0
20.06.2018 05:00:00 12,1 11,6 2 1 5 3 ESE 0,0
20.06.2018 04:00:00 12,7 12,1 0 0 5 3 NE 0,0
20.06.2018 03:00:00 13,2 12,4 4 2 8 4 S 0,0
20.06.2018 02:00:00 14,1 12,7 4 2 8 4 SE -
20.06.2018 01:00:00 14,8 13,2 4 2 11 6 ESE 0,0
20.06.2018 00:00:00 15,6 13,4 4 2 11 6 NNE 0,0
19.06.2018 23:00:00 16,8 13,5 5 3 13 7 NNE 0,0
19.06.2018 22:00:00 17,3 13,8 5 3 24 13 N 0,0
19.06.2018 21:00:00 19,0 14,3 13 7 34 18 NNW 0,0
19.06.2018 20:00:00 21,3 14,2 16 9 35 19 NW -
19.06.2018 19:00:00 23,0 14,3 18 10 41 22 NW 0,0
19.06.2018 18:00:00 22,8 15,1 22 12 44 24 NW 0,0
19.06.2018 17:00:00 24,4 15,9 18 10 41 22 NW 0,0
19.06.2018 16:00:00 24,3 16,0 22 12 41 22 WNW 0,0
19.06.2018 15:00:00 24,2 14,6 18 10 41 22 NW 0,0
19.06.2018 14:00:00 23,0 13,7 21 11 41 22 NW -
19.06.2018 13:00:00 22,6 12,8 18 10 37 20 WNW 0,0
19.06.2018 12:00:00 20,8 13,3 21 11 39 21 WNW 0,0
19.06.2018 11:00:00 19,6 13,3 16 9 29 16 WNW 0,0
19.06.2018 10:00:00 18,4 12,4 9 5 29 16 NW 0,0
19.06.2018 09:00:00 17,0 11,9 5 3 16 9 WSW 0,0
19.06.2018 08:00:00 14,2 11,2 4 2 9 5 SE -
19.06.2018 07:00:00 13,7 11,2 4 2 16 9 NNW 0,0
19.06.2018 06:00:00 13,0 10,7 5 3 16 9 N 0,0
19.06.2018 05:00:00 13,8 11,0 8 4 26 14 NNW 0,0
19.06.2018 04:00:00 13,9 11,1 11 6 22 12 NNW 0,0
19.06.2018 03:00:00 13,5 11,0 8 4 24 13 N 0,0
19.06.2018 02:00:00 13,8 11,3 13 7 26 14 NNW -
19.06.2018 01:00:00 14,4 11,4 11 6 34 18 NNW 0,0
19.06.2018 00:00:00 14,8 11,6 11 6 21 11 NW 0,0
18.06.2018 23:00:00 15,6 11,4 5 3 18 10 NNE 0,0
18.06.2018 22:00:00 15,9 11,3 8 4 24 13 NNW 0,0
18.06.2018 21:00:00 16,6 11,5 5 3 24 13 NNE 0,0
18.06.2018 20:00:00 17,4 11,9 9 5 35 19 NNW -
18.06.2018 19:00:00 17,6 11,6 16 9 35 19 NNW 0,0
18.06.2018 18:00:00 18,6 11,9 15 8 39 21 N 0,0
18.06.2018 17:00:00 18,6 11,7 16 9 41 22 NNW 0,0
18.06.2018 16:00:00 19,6 11,9 18 10 41 22 N 0,0
18.06.2018 15:00:00 19,6 11,9 18 10 37 20 NNW 0,0
18.06.2018 14:00:00 18,9 11,9 21 11 46 25 NNW -
18.06.2018 13:00:00 18,3 11,4 18 10 39 21 NNW 0,0
18.06.2018 12:00:00 17,2 10,3 21 11 39 21 NNW 0,0
18.06.2018 11:00:00 15,4 11,4 16 9 31 17 NW 0,0
18.06.2018 10:00:00 14,2 9,6 9 5 29 16 NNW 0,0
18.06.2018 09:00:00 13,3 9,7 11 6 22 12 NNW 0,0
18.06.2018 08:00:00 12,8 9,4 4 2 16 9 N -
18.06.2018 07:00:00 12,2 9,2 8 4 22 12 NNW 0,0
18.06.2018 06:00:00 12,2 9,2 9 5 28 15 N 0,0
18.06.2018 05:00:00 12,3 9,3 8 4 31 17 N 0,0
18.06.2018 04:00:00 12,5 9,5 9 5 35 19 N 0,0
18.06.2018 03:00:00 12,6 9,4 9 5 26 14 N 0,0
18.06.2018 02:00:00 12,7 9,5 8 4 44 24 N -
18.06.2018 01:00:00 12,9 9,5 15 8 34 18 NNW 0,0
18.06.2018 00:00:00 13,6 10,0 8 4 39 21 N 0,0
17.06.2018 23:00:00 13,9 10,1 16 9 39 21 NNW 0,0
17.06.2018 22:00:00 13,8 10,0 16 9 41 22 NNW 0,0
17.06.2018 21:00:00 14,3 10,5 13 7 52 28 N 0,0
17.06.2018 20:00:00 14,7 10,9 24 13 48 26 NNW -
17.06.2018 19:00:00 15,5 11,9 22 12 48 26 NNW 0,0
17.06.2018 18:00:00 17,6 12,1 18 10 57 31 NNW 0,0
17.06.2018 17:00:00 18,7 12,9 21 11 41 22 NNW 0,0
17.06.2018 16:00:00 18,2 12,6 16 9 35 19 NNW 0,0
17.06.2018 15:00:00 18,8 12,5 16 9 37 20 NNW 0,0
17.06.2018 14:00:00 18,9 12,4 13 7 28 15 NNW -
17.06.2018 13:00:00 17,6 11,8 9 5 35 19 N 0,0
17.06.2018 12:00:00 17,9 11,7 16 9 37 20 NNW 0,0
17.06.2018 11:00:00 17,1 12,2 11 6 31 17 NNW 0,0
17.06.2018 10:00:00 16,5 11,6 9 5 31 17 N 0,0
17.06.2018 09:00:00 15,8 11,8 8 4 18 10 N 0,0
17.06.2018 08:00:00 14,6 11,4 9 5 31 17 NNW -
17.06.2018 07:00:00 14,2 11,5 15 8 31 17 NW 0,0
17.06.2018 06:00:00 14,0 11,3 9 5 29 16 NNW 0,0
17.06.2018 05:00:00 14,2 11,4 13 7 22 12 NNW 0,0
17.06.2018 04:00:00 14,5 11,1 4 2 21 11 N 0,0
17.06.2018 03:00:00 14,8 11,6 9 5 22 12 NW 0,0
17.06.2018 02:00:00 15,0 11,4 5 3 28 15 NNW -
17.06.2018 01:00:00 14,8 11,0 4 2 21 11 NNE 0,0
17.06.2018 00:00:00 15,1 11,1 8 4 26 14 NNW 0,0
16.06.2018 23:00:00 15,9 10,9 9 5 28 15 N 0,0
16.06.2018 22:00:00 15,8 11,2 8 4 29 16 NNW 0,0
16.06.2018 21:00:00 16,4 11,3 11 6 42 23 NNW 0,0
16.06.2018 20:00:00 18,4 11,2 21 11 37 20 NNW -
16.06.2018 19:00:00 19,6 12,4 15 8 37 20 NW 0,0
16.06.2018 18:00:00 19,5 12,7 16 9 39 21 NW 0,0
16.06.2018 17:00:00 22,0 14,4 16 9 37 20 NW 0,0
16.06.2018 16:00:00 21,2 14,4 18 10 37 20 NW 0,0
16.06.2018 15:00:00 22,5 13,8 13 7 37 20 NW 0,0
16.06.2018 14:00:00 21,3 13,7 21 11 39 21 NW -
16.06.2018 13:00:00 21,5 13,1 13 7 35 19 NW 0,0
16.06.2018 12:00:00 20,0 12,0 18 10 35 19 WNW 0,0
16.06.2018 11:00:00 18,8 11,1 16 9 34 18 WNW 0,0
16.06.2018 10:00:00 17,5 10,6 9 5 26 14 W 0,0
16.06.2018 09:00:00 16,0 10,7 4 2 11 6 SW 0,0
16.06.2018 08:00:00 12,8 10,5 2 1 9 5 N -
16.06.2018 07:00:00 11,2 9,8 5 3 11 6 NE 0,0
16.06.2018 06:00:00 11,0 9,6 4 2 9 5 NNE 0,0
16.06.2018 05:00:00 10,8 9,4 4 2 8 4 ENE 0,0
16.06.2018 04:00:00 11,2 9,8 4 2 8 4 ENE 0,0
16.06.2018 03:00:00 11,7 9,9 4 2 8 4 NE 0,0
16.06.2018 02:00:00 12,1 10,0 4 2 11 6 NE -
16.06.2018 01:00:00 12,6 10,1 4 2 15 8 NNE 0,0
16.06.2018 00:00:00 13,4 10,2 5 3 15 8 N 0,0
15.06.2018 23:00:00 14,2 10,6 5 3 22 12 NNW 0,0
15.06.2018 22:00:00 14,9 10,9 15 8 29 16 NNW 0,0
15.06.2018 21:00:00 15,6 10,6 15 8 34 18 NNW 0,0
15.06.2018 20:00:00 17,8 11,4 16 9 35 19 NNW -
15.06.2018 19:00:00 19,5 10,5 16 9 42 23 NNW 0,0
15.06.2018 18:00:00 20,0 11,5 16 9 48 26 NNW 0,0
15.06.2018 17:00:00 21,0 12,2 16 9 50 27 NNW 0,0
15.06.2018 16:00:00 21,3 11,3 18 10 37 20 NNW 0,0
15.06.2018 15:00:00 20,6 11,0 15 8 34 18 NNW 0,0
15.06.2018 14:00:00 19,8 12,1 15 8 42 23 NNW -
15.06.2018 13:00:00 17,9 10,0 21 11 37 20 WNW 0,0
15.06.2018 12:00:00 17,8 10,9 11 6 34 18 NW 0,0

tt = Température de l'air
td = dewpoint
ff = Vitesse du vent
fx = gusts
dd = Direction du vent
rr = Quantités de précipitations

stations d'obs. à proximité